EGNR/CEG METAR and TAF weather

Enter ICAO airport designator
Station Type Date Time Source
EGNR METAR 2018/06/25 16:50 UTC NOAA

EGNR 251650Z 32009KT CAVOK 24/10 Q1026


Station Type Date Time Source
EGNR Decoded METAR 2018/06/25 16:50 UTC NOAA

Hawarden, United Kingdom (EGNR) 53-10N 002-59W 0M
Jun 25, 2018 - 12:50 PM EDT / 2018.06.25 1650 UTC
Wind: from the NW (320 degrees) at 10 MPH (9 KT):0
Visibility: greater than 7 mile(s):0
Temperature: 75 F (24 C)
Dew Point: 50 F (10 C)
Relative Humidity: 41%
Pressure (altimeter): 30.30 in. Hg (1026 hPa)
ob: EGNR 251650Z 32009KT CAVOK 24/10 Q1026
cycle: 17

Station Type Date Time Source
EGNR TAF 2016/01/23 12:00 UTC NOAA

TAF EGNR 231059Z 2312/2319 15009KT 9999 FEW020
BECMG 2316/2319 BKN014
TEMPO 2317/2319 6000 RA BKN008


Example: see airport list